createdAt,value
2018-06-21T00:02:07.774Z,99885.00
2018-06-21T00:04:35.363Z,99881.00
2018-06-21T00:07:03.000Z,99880.00
2018-06-21T00:09:31.091Z,99879.00
2018-06-21T00:11:58.717Z,99883.00
2018-06-21T00:14:26.372Z,99882.00
2018-06-21T00:16:54.049Z,99876.00
2018-06-21T00:19:21.648Z,99876.00
2018-06-21T00:21:49.273Z,99875.00
2018-06-21T00:24:16.886Z,99874.00
2018-06-21T00:26:44.507Z,99869.00
2018-06-21T00:29:12.155Z,99869.00
2018-06-21T00:31:39.766Z,99873.00
2018-06-21T00:34:07.355Z,99869.00
2018-06-21T00:36:34.981Z,99867.00
2018-06-21T00:39:02.631Z,99867.00
2018-06-21T00:41:30.199Z,99872.00
2018-06-21T00:43:57.979Z,99873.00
2018-06-21T00:46:25.661Z,99875.00
2018-06-21T00:48:53.293Z,99881.00
2018-06-21T00:51:20.951Z,99880.00
2018-06-21T00:53:48.625Z,99878.00
2018-06-21T00:56:18.260Z,99879.00
2018-06-21T00:58:46.763Z,99873.00
2018-06-21T01:01:15.469Z,99877.00
2018-06-21T01:03:43.253Z,99875.00
2018-06-21T01:06:11.011Z,99873.00
2018-06-21T01:08:38.568Z,99879.00
2018-06-21T01:11:06.173Z,99872.00
2018-06-21T01:13:33.789Z,99871.00
2018-06-21T01:16:01.377Z,99874.00
2018-06-21T01:18:29.018Z,99871.00
2018-06-21T01:20:56.621Z,99867.00
2018-06-21T01:23:24.195Z,99864.00
2018-06-21T01:25:51.815Z,99863.00
2018-06-21T01:28:19.424Z,99857.00
2018-06-21T01:30:47.049Z,99853.00
2018-06-21T01:33:14.626Z,99849.00
2018-06-21T01:35:42.199Z,99847.00
2018-06-21T01:38:09.780Z,99850.00
2018-06-21T01:40:37.366Z,99848.00
2018-06-21T01:43:05.192Z,99853.00
2018-06-21T01:45:33.996Z,99841.00
2018-06-21T01:48:01.611Z,99844.00
2018-06-21T01:50:29.240Z,99839.00
2018-06-21T01:52:56.851Z,99839.00
2018-06-21T01:55:24.611Z,99834.00
2018-06-21T01:57:52.264Z,99833.00
2018-06-21T02:00:20.390Z,99834.00
2018-06-21T02:02:47.957Z,99831.00
2018-06-21T02:05:15.564Z,99826.00
2018-06-21T02:07:43.195Z,99824.00
2018-06-21T02:10:10.792Z,99819.00
2018-06-21T02:12:38.714Z,99815.00
2018-06-21T02:15:06.563Z,99813.00
2018-06-21T02:17:34.209Z,99810.00
2018-06-21T02:20:02.159Z,99811.00
2018-06-21T02:22:29.987Z,99808.00
2018-06-21T02:24:57.650Z,99805.00
2018-06-21T02:27:25.289Z,99799.00
2018-06-21T02:29:52.879Z,99796.00
2018-06-21T02:32:20.504Z,99800.00
2018-06-21T02:34:48.132Z,99796.00
2018-06-21T02:37:15.736Z,99801.00
2018-06-21T02:39:43.379Z,99799.00
2018-06-21T02:42:11.004Z,99794.00
2018-06-21T02:44:38.593Z,99787.00
2018-06-21T02:47:06.456Z,99796.00
2018-06-21T02:49:34.188Z,99801.00
2018-06-21T02:52:01.797Z,99792.00
2018-06-21T02:54:29.394Z,99778.00
2018-06-21T02:56:56.979Z,99792.00
2018-06-21T02:59:25.109Z,99800.00
2018-06-21T03:01:53.308Z,99790.00
2018-06-21T03:04:20.868Z,99787.00
2018-06-21T03:06:48.455Z,99794.00
2018-06-21T03:09:16.040Z,99800.00
2018-06-21T03:11:43.691Z,99799.00
2018-06-21T03:14:11.303Z,99793.00
2018-06-21T03:16:38.939Z,99796.00
2018-06-21T03:19:06.835Z,99796.00
2018-06-21T03:21:34.407Z,99796.00
2018-06-21T03:24:02.030Z,99792.00
2018-06-21T03:26:30.125Z,99793.00
2018-06-21T03:28:57.692Z,99793.00
2018-06-21T03:31:25.351Z,99787.00
2018-06-21T03:33:53.135Z,99784.00
2018-06-21T03:36:20.767Z,99782.00
2018-06-21T03:38:48.360Z,99779.00
2018-06-21T03:41:15.951Z,99780.00
2018-06-21T03:43:43.598Z,99781.00
2018-06-21T03:46:11.186Z,99779.00
2018-06-21T03:48:38.748Z,99776.00
2018-06-21T03:51:06.583Z,99773.00
2018-06-21T03:53:34.255Z,99773.00
2018-06-21T03:56:01.816Z,99764.00
2018-06-21T03:58:29.435Z,99762.00
2018-06-21T04:00:57.023Z,99767.00
2018-06-21T04:03:24.748Z,99760.00
2018-06-21T04:05:52.461Z,99758.00
2018-06-21T04:08:20.097Z,99757.00
2018-06-21T04:10:47.695Z,99755.00
2018-06-21T04:13:15.264Z,99755.00
2018-06-21T04:15:42.861Z,99754.00
2018-06-21T04:18:10.463Z,99754.00
2018-06-21T04:20:38.118Z,99754.00
2018-06-21T04:23:06.311Z,99754.00
2018-06-21T04:25:33.947Z,99741.00
2018-06-21T04:28:01.567Z,99736.00
2018-06-21T04:30:29.184Z,99732.00
2018-06-21T04:32:56.752Z,99730.00
2018-06-21T04:35:24.313Z,99733.00
2018-06-21T04:37:51.963Z,99729.00
2018-06-21T04:40:19.592Z,99728.00
2018-06-21T04:42:47.203Z,99724.00
2018-06-21T04:45:14.776Z,99718.00
2018-06-21T04:47:42.376Z,99714.00
2018-06-21T04:50:10.033Z,99720.00
2018-06-21T04:52:38.348Z,99706.00
2018-06-21T04:55:05.989Z,99701.00
2018-06-21T04:57:33.635Z,99699.00
2018-06-21T05:00:01.285Z,99698.00
2018-06-21T05:02:28.844Z,99694.00
2018-06-21T05:04:56.538Z,99691.00
2018-06-21T05:07:24.209Z,99694.00
2018-06-21T05:09:51.813Z,99691.00
2018-06-21T05:12:21.193Z,99688.00
2018-06-21T05:14:49.623Z,99689.00
2018-06-21T05:17:17.185Z,99683.00
2018-06-21T05:19:44.805Z,99682.00
2018-06-21T05:22:12.499Z,99679.00
2018-06-21T05:24:40.533Z,99675.00
2018-06-21T05:27:08.312Z,99672.00
2018-06-21T05:29:35.927Z,99670.00
2018-06-21T05:32:03.651Z,99666.00
2018-06-21T05:34:31.292Z,99655.00
2018-06-21T05:36:59.051Z,99659.00
2018-06-21T05:39:26.908Z,99664.00
2018-06-21T05:41:54.507Z,99664.00
2018-06-21T05:44:22.093Z,99663.00
2018-06-21T05:46:49.684Z,99664.00
2018-06-21T05:49:17.213Z,99666.00
2018-06-21T05:51:44.805Z,99661.00
2018-06-21T05:54:12.384Z,99654.00
2018-06-21T05:56:39.988Z,99652.00
2018-06-21T05:59:07.608Z,99655.00
2018-06-21T06:01:35.168Z,99654.00
2018-06-21T06:04:02.768Z,99641.00
2018-06-21T06:06:30.341Z,99636.00
2018-06-21T06:11:26.746Z,99634.00
2018-06-21T06:13:54.349Z,99636.00
2018-06-21T06:16:22.012Z,99634.00
2018-06-21T06:18:49.584Z,99632.00
2018-06-21T06:21:17.180Z,99622.00
2018-06-21T06:23:44.745Z,99621.00
2018-06-21T06:26:12.465Z,99614.00
2018-06-21T06:28:40.096Z,99613.00
2018-06-21T06:31:07.623Z,99607.00
2018-06-21T06:33:35.172Z,99596.00
2018-06-21T06:36:02.752Z,99600.00
2018-06-21T06:38:30.339Z,99588.00
2018-06-21T06:40:57.935Z,99589.00
2018-06-21T06:43:25.471Z,99583.00
2018-06-21T06:45:53.053Z,99582.00
2018-06-21T06:48:20.709Z,99582.00
2018-06-21T06:50:48.242Z,99578.00
2018-06-21T06:53:15.937Z,99574.00
2018-06-21T06:55:45.189Z,99569.00
2018-06-21T06:58:12.884Z,99563.00
2018-06-21T07:00:40.471Z,99559.00
2018-06-21T07:03:08.108Z,99553.00
2018-06-21T07:05:35.692Z,99551.00
2018-06-21T07:08:03.261Z,99540.00
2018-06-21T07:10:31.382Z,99536.00
2018-06-21T07:12:58.968Z,99538.00
2018-06-21T07:15:26.602Z,99527.00
2018-06-21T07:17:54.216Z,99529.00
2018-06-21T07:20:21.889Z,99525.00
2018-06-21T07:22:49.461Z,99526.00
2018-06-21T07:25:17.015Z,99525.00
2018-06-21T07:27:44.620Z,99516.00
2018-06-21T07:30:12.233Z,99517.00
2018-06-21T07:32:40.049Z,99512.00
2018-06-21T07:35:08.305Z,99506.00
2018-06-21T07:37:35.919Z,99504.00
2018-06-21T07:40:03.634Z,99492.00
2018-06-21T07:42:31.192Z,99492.00
2018-06-21T07:44:58.775Z,99487.00
2018-06-21T07:47:26.370Z,99480.00
2018-06-21T07:49:53.946Z,99477.00
2018-06-21T07:52:21.537Z,99475.00
2018-06-21T07:54:49.195Z,99463.00
2018-06-21T07:57:16.830Z,99467.00
2018-06-21T07:59:44.446Z,99454.00
2018-06-21T08:02:12.048Z,99447.00
2018-06-21T08:04:39.665Z,99450.00
2018-06-21T08:07:07.585Z,99450.00
2018-06-21T08:09:35.180Z,99440.00
2018-06-21T08:12:03.168Z,99439.00
2018-06-21T08:14:30.826Z,99433.00
2018-06-21T08:16:58.441Z,99426.00
2018-06-21T08:19:26.008Z,99426.00
2018-06-21T08:21:53.645Z,99436.00
2018-06-21T08:24:21.282Z,99411.00
2018-06-21T08:26:48.876Z,99412.00
2018-06-21T08:29:16.495Z,99412.00
2018-06-21T08:31:44.128Z,99409.00
2018-06-21T08:34:11.699Z,99405.00
2018-06-21T08:36:39.284Z,99402.00
2018-06-21T08:39:08.190Z,99393.00
2018-06-21T08:41:36.003Z,99398.00
2018-06-21T08:44:03.732Z,99386.00
2018-06-21T08:46:31.778Z,99377.00
2018-06-21T08:48:59.502Z,99382.00
2018-06-21T08:51:27.243Z,99374.00
2018-06-21T08:53:54.835Z,99366.00
2018-06-21T08:56:22.395Z,99368.00
2018-06-21T08:58:50.259Z,99359.00
2018-06-21T09:01:17.831Z,99362.00
2018-06-21T09:03:45.509Z,99367.00
2018-06-21T09:06:13.152Z,99359.00
2018-06-21T09:08:40.888Z,99350.00
2018-06-21T09:11:08.419Z,99346.00
2018-06-21T09:13:37.187Z,99342.00
2018-06-21T09:16:06.320Z,99337.00
2018-06-21T09:18:33.927Z,99341.00
2018-06-21T09:21:01.858Z,99335.00
2018-06-21T09:23:29.469Z,99335.00
2018-06-21T09:25:57.047Z,99325.00
2018-06-21T09:28:24.655Z,99328.00
2018-06-21T09:30:52.216Z,99323.00
2018-06-21T09:33:19.914Z,99320.00
2018-06-21T09:35:47.472Z,99327.00
2018-06-21T09:38:20.820Z,99303.00
2018-06-21T09:40:54.300Z,99306.00
2018-06-21T09:43:27.805Z,99317.00
2018-06-21T09:46:01.135Z,99287.00
2018-06-21T09:48:30.044Z,99305.00
2018-06-21T09:50:58.383Z,99300.00
2018-06-21T09:53:26.671Z,99292.00
2018-06-21T09:55:54.294Z,99297.00
2018-06-21T09:58:21.911Z,99291.00
2018-06-21T10:00:55.460Z,99281.00
2018-06-21T10:03:23.012Z,99289.00
2018-06-21T10:05:50.671Z,99288.00
2018-06-21T10:08:18.388Z,99285.00
2018-06-21T10:10:46.067Z,99284.00
2018-06-21T10:13:13.663Z,99288.00
2018-06-21T10:15:41.491Z,99283.00
2018-06-21T10:18:09.100Z,99278.00
2018-06-21T10:20:36.716Z,99271.00
2018-06-21T10:23:04.332Z,99257.00
2018-06-21T10:25:31.934Z,99265.00
2018-06-21T10:27:59.562Z,99264.00
2018-06-21T10:50:07.503Z,99265.00
2018-06-21T10:52:35.391Z,99252.00
2018-06-21T10:55:02.968Z,99234.00
2018-06-21T10:57:30.607Z,99236.00
2018-06-21T10:59:58.211Z,99242.00
2018-06-21T11:02:25.804Z,99244.00
2018-06-21T11:04:53.403Z,99237.00
2018-06-21T11:07:21.011Z,99235.00
2018-06-21T11:09:48.656Z,99231.00
2018-06-21T11:12:16.291Z,99235.00
2018-06-21T11:14:43.919Z,99229.00
2018-06-21T11:17:11.511Z,99220.00
2018-06-21T11:19:39.076Z,99229.00
2018-06-21T11:22:06.717Z,99235.00
2018-06-21T11:24:34.327Z,99230.00
2018-06-21T11:27:01.978Z,99239.00
2018-06-21T11:29:29.599Z,99214.00
2018-06-21T11:31:57.173Z,99221.00
2018-06-21T11:34:24.777Z,99234.00
2018-06-21T11:36:52.361Z,99235.00
2018-06-21T11:39:19.959Z,99247.00
2018-06-21T11:41:47.576Z,99244.00
2018-06-21T11:44:15.193Z,99241.00
2018-06-21T11:46:42.788Z,99246.00
2018-06-21T11:49:10.384Z,99243.00
2018-06-21T11:51:38.365Z,99241.00
2018-06-21T11:54:05.964Z,99255.00
2018-06-21T11:56:33.611Z,99252.00
2018-06-21T11:59:01.259Z,99264.00
2018-06-21T12:01:28.871Z,99248.00
2018-06-21T12:03:56.460Z,99259.00
2018-06-21T12:06:24.092Z,99263.00
2018-06-21T12:08:51.636Z,99263.00
2018-06-21T12:11:19.420Z,99263.00
2018-06-21T12:13:47.037Z,99264.00
2018-06-21T12:16:14.739Z,99281.00
2018-06-21T12:18:42.369Z,99265.00
2018-06-21T12:21:10.009Z,99275.00
2018-06-21T12:23:37.603Z,99263.00
2018-06-21T12:26:05.244Z,99284.00
2018-06-21T12:28:32.849Z,99282.00
2018-06-21T12:31:00.428Z,99295.00
2018-06-21T12:33:28.006Z,99285.00
2018-06-21T12:35:55.617Z,99306.00
2018-06-21T12:38:23.219Z,99340.00
2018-06-21T12:40:50.775Z,99366.00
2018-06-21T12:43:18.383Z,99387.00
2018-06-21T12:45:46.154Z,99387.00
2018-06-21T12:48:13.715Z,99411.00
2018-06-21T12:50:41.300Z,99438.00
2018-06-21T12:53:08.908Z,99448.00
2018-06-21T12:55:36.482Z,99479.00
2018-06-21T12:58:05.404Z,99480.00
2018-06-21T13:00:32.959Z,99501.00
2018-06-21T13:03:00.507Z,99500.00
2018-06-21T13:05:28.114Z,99508.00
2018-06-21T13:07:55.652Z,99521.00
2018-06-21T13:10:41.309Z,99544.00
2018-06-21T13:13:18.292Z,99562.00
2018-06-21T13:15:45.890Z,99565.00
2018-06-21T13:18:13.480Z,99569.00
2018-06-21T13:20:41.114Z,99589.00
2018-06-21T13:23:08.754Z,99590.00
2018-06-21T13:25:36.330Z,99619.00
2018-06-21T13:28:04.872Z,99634.00
2018-06-21T13:30:32.640Z,99647.00
2018-06-21T13:33:00.239Z,99658.00
2018-06-21T13:35:27.855Z,99632.00
2018-06-21T13:37:55.499Z,99665.00
2018-06-21T13:40:23.072Z,99678.00
2018-06-21T13:42:50.616Z,99688.00
2018-06-21T13:45:18.219Z,99706.00
2018-06-21T13:47:45.948Z,99712.00
2018-06-21T13:50:13.582Z,99710.00
2018-06-21T13:52:41.298Z,99725.00
2018-06-21T13:55:08.964Z,99741.00
2018-06-21T13:57:36.577Z,99755.00
2018-06-21T14:00:05.200Z,99772.00
2018-06-21T14:02:32.811Z,99779.00
2018-06-21T14:05:00.413Z,99778.00
2018-06-21T14:07:28.040Z,99785.00
2018-06-21T14:09:55.556Z,99775.00
2018-06-21T14:12:23.119Z,99763.00
2018-06-21T14:14:50.682Z,99799.00
2018-06-21T14:17:18.320Z,99787.00
2018-06-21T14:19:45.883Z,99807.00
2018-06-21T14:22:13.471Z,99808.00
2018-06-21T14:24:41.051Z,99822.00
2018-06-21T14:27:08.605Z,99822.00
2018-06-21T14:29:36.243Z,99832.00
2018-06-21T14:32:03.852Z,99842.00
2018-06-21T14:34:31.494Z,99850.00
2018-06-21T14:36:59.066Z,99851.00
2018-06-21T14:39:26.690Z,99865.00
2018-06-21T14:41:54.302Z,99867.00
2018-06-21T14:44:21.859Z,99858.00
2018-06-21T14:46:49.434Z,99872.00
2018-06-21T14:49:17.008Z,99883.00
2018-06-21T14:51:44.619Z,99870.00
2018-06-21T14:54:12.200Z,99878.00
2018-06-21T14:56:39.932Z,99874.00
2018-06-21T14:59:07.524Z,99868.00
2018-06-21T15:01:35.356Z,99879.00
2018-06-21T15:04:02.950Z,99880.00
2018-06-21T15:06:30.519Z,99879.00
2018-06-21T15:08:58.169Z,99863.00
2018-06-21T15:11:25.748Z,99886.00
2018-06-21T15:13:53.363Z,99880.00
2018-06-21T15:16:22.203Z,99888.00
2018-06-21T15:18:49.751Z,99899.00
2018-06-21T15:21:17.742Z,99889.00
2018-06-21T15:23:45.385Z,99886.00
2018-06-21T15:26:13.000Z,99888.00
2018-06-21T15:28:40.948Z,99887.00
2018-06-21T15:31:08.549Z,99892.00
2018-06-21T15:33:36.110Z,99898.00
2018-06-21T15:36:03.972Z,99899.00
2018-06-21T15:38:31.564Z,99898.00
2018-06-21T15:40:59.322Z,99890.00
2018-06-21T15:43:26.937Z,99892.00
2018-06-21T15:45:54.596Z,99887.00
2018-06-21T15:48:23.148Z,99882.00
2018-06-21T15:50:50.752Z,99880.00
2018-06-21T15:53:18.360Z,99879.00
2018-06-21T15:55:46.107Z,99883.00
2018-06-21T15:58:13.709Z,99885.00
2018-06-21T16:00:41.309Z,99899.00
2018-06-21T16:03:08.931Z,99895.00
2018-06-21T16:05:36.473Z,99885.00
2018-06-21T16:08:04.144Z,99900.00
2018-06-21T16:10:31.740Z,99904.00
2018-06-21T16:12:59.299Z,99902.00
2018-06-21T16:15:26.951Z,99901.00
2018-06-21T16:17:54.564Z,99899.00
2018-06-21T16:20:22.222Z,99906.00
2018-06-21T16:22:49.928Z,99901.00
2018-06-21T16:25:17.552Z,99898.00
2018-06-21T16:27:45.207Z,99903.00
2018-06-21T16:30:12.965Z,99900.00
2018-06-21T16:32:40.783Z,99900.00
2018-06-21T16:35:08.420Z,99904.00
2018-06-21T16:37:36.135Z,99902.00
2018-06-21T16:40:04.132Z,99902.00
2018-06-21T16:42:31.755Z,99902.00
2018-06-21T16:44:59.401Z,99896.00
2018-06-21T16:47:27.152Z,99893.00
2018-06-21T16:49:54.759Z,99897.00
2018-06-21T16:52:22.512Z,99895.00
2018-06-21T16:54:50.128Z,99898.00
2018-06-21T16:57:17.886Z,99894.00
2018-06-21T16:59:45.656Z,99895.00
2018-06-21T17:02:13.329Z,99894.00
2018-06-21T17:04:40.898Z,99889.00
2018-06-21T17:07:08.490Z,99889.00
2018-06-21T17:09:36.139Z,99890.00
2018-06-21T17:12:03.759Z,99890.00
2018-06-21T17:14:31.376Z,99889.00
2018-06-21T17:16:58.999Z,99888.00
2018-06-21T17:19:26.807Z,99887.00
2018-06-21T17:21:54.400Z,99889.00
2018-06-21T17:24:22.542Z,99886.00
2018-06-21T17:26:50.265Z,99888.00
2018-06-21T17:29:17.907Z,99891.00
2018-06-21T17:31:45.599Z,99892.00
2018-06-21T17:34:13.193Z,99896.00
2018-06-21T17:36:41.139Z,99892.00
2018-06-21T17:39:09.862Z,99899.00
2018-06-21T17:41:37.394Z,99903.00
2018-06-21T17:44:05.132Z,99908.00
2018-06-21T17:46:32.728Z,99918.00
2018-06-21T17:49:00.369Z,99914.00
2018-06-21T17:51:28.238Z,99923.00
2018-06-21T17:53:55.802Z,99923.00
2018-06-21T17:56:23.383Z,99935.00
2018-06-21T17:58:51.008Z,99932.00
2018-06-21T18:01:18.639Z,99930.00
2018-06-21T18:03:46.215Z,99932.00
2018-06-21T18:06:13.847Z,99934.00
2018-06-21T18:08:41.528Z,99945.00
2018-06-21T18:11:12.478Z,99951.00
2018-06-21T18:13:41.264Z,99956.00
2018-06-21T18:16:08.945Z,99954.00
2018-06-21T18:18:36.854Z,99963.00
2018-06-21T18:21:04.559Z,99968.00
2018-06-21T18:23:32.178Z,99969.00
2018-06-21T18:25:59.779Z,99974.00
2018-06-21T18:28:27.487Z,99983.00
2018-06-21T18:30:55.134Z,99985.00
2018-06-21T18:33:22.816Z,99989.00
2018-06-21T18:35:50.622Z,99992.00
2018-06-21T18:38:18.374Z,100000.00
2018-06-21T18:40:45.964Z,100006.00
2018-06-21T18:43:14.350Z,100008.00
2018-06-21T18:45:42.238Z,100013.00
2018-06-21T18:48:09.854Z,100018.00
2018-06-21T18:50:37.521Z,100028.00
2018-06-21T18:53:05.252Z,100026.00
2018-06-21T18:55:32.864Z,100043.00
2018-06-21T18:58:00.528Z,100047.00
2018-06-21T19:00:28.139Z,100054.00
2018-06-21T19:02:55.840Z,100062.00
2018-06-21T19:05:23.493Z,100052.00
2018-06-21T19:07:56.878Z,100060.00
2018-06-21T19:10:30.384Z,100077.00
2018-06-21T19:12:57.995Z,100082.00
2018-06-21T19:15:25.637Z,100086.00
2018-06-21T19:17:53.240Z,100089.00
2018-06-21T19:20:20.913Z,100091.00
2018-06-21T19:22:48.790Z,100090.00
2018-06-21T19:25:16.403Z,100097.00
2018-06-21T19:27:44.049Z,100096.00
2018-06-21T19:30:11.748Z,100102.00
2018-06-21T19:32:39.490Z,100108.00
2018-06-21T19:35:07.069Z,100104.00
2018-06-21T19:37:34.673Z,100106.00
2018-06-21T19:40:02.332Z,100111.00
2018-06-21T19:42:29.939Z,100114.00
2018-06-21T19:44:57.548Z,100118.00
2018-06-21T19:47:25.173Z,100125.00
2018-06-21T19:49:52.758Z,100122.00
2018-06-21T19:52:20.358Z,100125.00
2018-06-21T19:54:47.966Z,100128.00
2018-06-21T19:57:15.565Z,100133.00
2018-06-21T19:59:43.170Z,100141.00
2018-06-21T20:02:10.763Z,100133.00
2018-06-21T20:04:38.440Z,100139.00
2018-06-21T20:07:06.109Z,100137.00
2018-06-21T20:09:34.085Z,100135.00
2018-06-21T20:12:01.715Z,100146.00
2018-06-21T20:14:29.844Z,100146.00
2018-06-21T20:16:57.435Z,100140.00
2018-06-21T20:19:25.043Z,100146.00
2018-06-21T20:21:52.608Z,100144.00
2018-06-21T20:24:20.200Z,100142.00
2018-06-21T20:26:47.828Z,100141.00
2018-06-21T20:29:18.774Z,100144.00
2018-06-21T20:31:46.427Z,100141.00
2018-06-21T20:34:14.172Z,100142.00
2018-06-21T20:36:41.828Z,100145.00
2018-06-21T20:39:10.253Z,100143.00
2018-06-21T20:41:38.156Z,100148.00
2018-06-21T20:44:05.998Z,100147.00
2018-06-21T20:46:33.992Z,100145.00
2018-06-21T20:49:01.761Z,100151.00
2018-06-21T20:51:29.387Z,100154.00
2018-06-21T20:53:57.029Z,100159.00
2018-06-21T20:56:24.716Z,100166.00
2018-06-21T20:58:52.392Z,100160.00
2018-06-21T21:01:20.020Z,100166.00
2018-06-21T21:03:47.664Z,100166.00
2018-06-21T21:06:15.323Z,100169.00
2018-06-21T21:08:42.947Z,100176.00
2018-06-21T21:11:10.551Z,100181.00
2018-06-21T21:13:38.171Z,100182.00
2018-06-21T21:16:05.836Z,100188.00
2018-06-21T21:18:33.436Z,100189.00
2018-06-21T21:21:01.106Z,100193.00
2018-06-21T21:23:29.204Z,100194.00
2018-06-21T21:25:56.840Z,100189.00
2018-06-21T21:28:24.431Z,100183.00
2018-06-21T21:30:52.164Z,100187.00
2018-06-21T21:33:19.927Z,100185.00
2018-06-21T21:35:47.692Z,100185.00
2018-06-21T21:38:15.329Z,100185.00
2018-06-21T21:40:42.988Z,100193.00
2018-06-21T21:43:10.610Z,100191.00
2018-06-21T21:45:38.183Z,100191.00
2018-06-21T21:48:06.048Z,100192.00
2018-06-21T21:50:33.679Z,100189.00
2018-06-21T21:53:02.679Z,100192.00
2018-06-21T21:55:30.271Z,100194.00
2018-06-21T21:57:58.823Z,100194.00
2018-06-21T22:00:50.308Z,100196.00
2018-06-21T22:03:18.135Z,100193.00
2018-06-21T22:05:45.760Z,100195.00
2018-06-21T22:08:13.357Z,100193.00
2018-06-21T22:10:42.388Z,100197.00
2018-06-21T22:13:10.250Z,100194.00
2018-06-21T22:15:37.891Z,100190.00
2018-06-21T22:18:05.676Z,100190.00
2018-06-21T22:20:33.291Z,100191.00
2018-06-21T22:23:00.911Z,100190.00
2018-06-21T22:25:29.111Z,100195.00
2018-06-21T22:27:57.700Z,100193.00
2018-06-21T22:30:26.284Z,100194.00
2018-06-21T22:32:54.054Z,100191.00
2018-06-21T22:35:21.673Z,100196.00
2018-06-21T22:37:49.761Z,100193.00
2018-06-21T22:40:17.305Z,100196.00
2018-06-21T22:42:45.174Z,100199.00
2018-06-21T22:45:13.009Z,100201.00
2018-06-21T22:47:40.618Z,100199.00
2018-06-21T22:50:08.263Z,100198.00
2018-06-21T22:52:35.906Z,100196.00
2018-06-21T22:55:03.513Z,100200.00
2018-06-21T22:57:31.251Z,100209.00
2018-06-21T22:59:59.015Z,100210.00
2018-06-21T23:02:26.657Z,100213.00
2018-06-21T23:04:54.286Z,100214.00
2018-06-21T23:07:22.247Z,100214.00
2018-06-21T23:09:50.111Z,100220.00
2018-06-21T23:12:17.869Z,100213.00
2018-06-21T23:14:45.587Z,100215.00
2018-06-21T23:17:13.116Z,100207.00
2018-06-21T23:19:40.717Z,100212.00
2018-06-21T23:22:08.344Z,100211.00
2018-06-21T23:24:35.932Z,100214.00
2018-06-21T23:27:03.938Z,100217.00
2018-06-21T23:29:31.516Z,100210.00
2018-06-21T23:31:59.088Z,100216.00
2018-06-21T23:34:26.708Z,100213.00
2018-06-21T23:36:54.355Z,100211.00
2018-06-21T23:39:21.992Z,100215.00
2018-06-21T23:41:49.594Z,100208.00
2018-06-21T23:44:17.213Z,100214.00
2018-06-21T23:46:44.765Z,100215.00
2018-06-21T23:49:12.868Z,100220.00
2018-06-21T23:51:40.470Z,100223.00
2018-06-21T23:54:09.836Z,100230.00
2018-06-21T23:56:37.812Z,100230.00
2018-06-21T23:59:05.951Z,100231.00
